createdAt,value
2022-11-30T00:00:37.644Z,7.34
2022-11-30T00:01:37.740Z,7.34
2022-11-30T00:02:37.998Z,7.33
2022-11-30T00:03:37.908Z,7.32
2022-11-30T00:04:37.990Z,7.33
2022-11-30T00:05:38.058Z,7.30
2022-11-30T00:06:38.136Z,7.32
2022-11-30T00:07:38.369Z,7.32
2022-11-30T00:08:38.326Z,7.30
2022-11-30T00:09:38.395Z,7.30
2022-11-30T00:10:38.473Z,7.29
2022-11-30T00:11:38.577Z,7.29
2022-11-30T00:12:38.671Z,7.27
2022-11-30T00:13:38.742Z,7.27
2022-11-30T00:14:38.820Z,7.29
2022-11-30T00:15:38.928Z,7.29
2022-11-30T00:16:39.056Z,7.27
2022-11-30T00:17:39.138Z,7.27
2022-11-30T00:18:39.184Z,7.26
2022-11-30T00:19:39.295Z,7.23
2022-11-30T00:20:39.372Z,7.26
2022-11-30T00:21:39.482Z,7.26
2022-11-30T00:22:39.588Z,7.24
2022-11-30T00:23:39.659Z,7.27
2022-11-30T00:24:39.732Z,7.29
2022-11-30T00:25:39.838Z,7.27
2022-11-30T00:26:39.917Z,7.27
2022-11-30T00:27:40.044Z,7.29
2022-11-30T00:28:40.100Z,7.29
2022-11-30T00:29:40.187Z,7.26
2022-11-30T00:30:40.358Z,7.24
2022-11-30T00:31:40.353Z,7.26
2022-11-30T00:32:40.449Z,7.23
2022-11-30T00:33:40.526Z,7.23
2022-11-30T00:34:40.601Z,7.23
2022-11-30T00:35:40.691Z,7.21
2022-11-30T00:36:40.771Z,7.18
2022-11-30T00:37:40.878Z,7.18
2022-11-30T00:38:40.919Z,7.18
2022-11-30T00:39:41.021Z,7.18
2022-11-30T00:40:41.085Z,7.18
2022-11-30T00:41:41.157Z,7.16
2022-11-30T00:42:41.241Z,7.16
2022-11-30T00:43:41.333Z,7.15
2022-11-30T00:44:41.395Z,7.12
2022-11-30T00:45:41.588Z,7.15
2022-11-30T00:46:41.560Z,7.14
2022-11-30T00:47:41.664Z,7.11
2022-11-30T00:48:41.733Z,7.11
2022-11-30T00:49:41.836Z,7.09
2022-11-30T00:50:41.920Z,7.08
2022-11-30T00:51:41.989Z,7.09
2022-11-30T00:52:42.080Z,7.11
2022-11-30T00:53:42.153Z,7.09
2022-11-30T00:54:42.232Z,7.09
2022-11-30T00:55:42.336Z,7.09
2022-11-30T00:56:42.418Z,7.11
2022-11-30T00:57:42.495Z,7.08
2022-11-30T00:58:42.569Z,7.09
2022-11-30T00:59:42.672Z,7.07
2022-11-30T01:00:42.770Z,7.09
2022-11-30T01:01:42.881Z,7.08
2022-11-30T01:02:42.964Z,7.05
2022-11-30T01:03:42.963Z,7.09
2022-11-30T01:04:43.044Z,7.08
2022-11-30T01:05:43.149Z,7.11
2022-11-30T01:06:43.229Z,7.08
2022-11-30T01:07:43.379Z,7.11
2022-11-30T01:08:43.377Z,7.09
2022-11-30T01:09:43.485Z,7.05
2022-11-30T01:10:43.581Z,7.05
2022-11-30T01:11:43.671Z,7.01
2022-11-30T01:12:43.762Z,7.01
2022-11-30T01:13:43.843Z,7.00
2022-11-30T01:14:44.205Z,7.00
2022-11-30T01:15:44.080Z,6.99
2022-11-30T01:16:44.091Z,6.97
2022-11-30T01:17:44.212Z,6.97
2022-11-30T01:18:44.259Z,6.96
2022-11-30T01:19:44.318Z,6.99
2022-11-30T01:20:44.395Z,6.99
2022-11-30T01:21:44.483Z,6.99
2022-11-30T01:22:44.576Z,7.00
2022-11-30T01:23:44.651Z,6.97
2022-11-30T01:24:45.084Z,6.94
2022-11-30T01:25:44.826Z,6.97
2022-11-30T01:26:44.912Z,6.96
2022-11-30T01:27:45.020Z,6.93
2022-11-30T01:28:45.059Z,6.93
2022-11-30T01:29:45.149Z,6.93
2022-11-30T01:30:45.284Z,6.93
2022-11-30T01:31:45.323Z,6.89
2022-11-30T01:32:45.421Z,6.89
2022-11-30T01:33:45.501Z,6.90
2022-11-30T01:34:46.008Z,6.90
2022-11-30T01:35:45.681Z,6.93
2022-11-30T01:36:45.756Z,6.93
2022-11-30T01:37:45.850Z,6.97
2022-11-30T01:38:45.892Z,6.96
2022-11-30T01:39:46.004Z,6.96
2022-11-30T01:40:46.068Z,6.96
2022-11-30T01:41:46.157Z,6.96
2022-11-30T01:42:46.254Z,6.94
2022-11-30T01:43:46.324Z,6.93
2022-11-30T01:44:46.605Z,6.94
2022-11-30T01:45:46.655Z,6.97
2022-11-30T01:46:46.558Z,6.97
2022-11-30T01:47:46.669Z,6.96
2022-11-30T01:48:46.742Z,6.94
2022-11-30T01:49:46.846Z,6.96
2022-11-30T01:50:46.927Z,6.99
2022-11-30T01:51:47.016Z,6.97
2022-11-30T01:52:47.112Z,6.97
2022-11-30T01:53:47.186Z,6.97
2022-11-30T01:54:47.513Z,6.99
2022-11-30T01:55:47.354Z,7.00
2022-11-30T01:56:47.437Z,6.99
2022-11-30T01:57:47.523Z,7.00
2022-11-30T01:58:47.561Z,7.04
2022-11-30T01:59:47.673Z,7.01
2022-11-30T02:00:47.745Z,7.01
2022-11-30T02:01:47.902Z,7.01
2022-11-30T02:02:47.999Z,7.00
2022-11-30T02:03:48.020Z,7.00
2022-11-30T02:04:48.382Z,6.99
2022-11-30T02:05:48.181Z,7.00
2022-11-30T02:06:48.261Z,6.99
2022-11-30T02:07:48.566Z,6.97
2022-11-30T02:08:48.427Z,7.01
2022-11-30T02:09:48.528Z,6.97
2022-11-30T02:10:48.606Z,7.00
2022-11-30T02:11:48.715Z,7.00
2022-11-30T02:12:48.815Z,6.99
2022-11-30T02:13:48.886Z,7.00
2022-11-30T02:14:49.147Z,7.00
2022-11-30T02:15:49.082Z,6.97
2022-11-30T02:16:49.128Z,6.99
2022-11-30T02:17:49.245Z,6.99
2022-11-30T02:18:49.289Z,6.99
2022-11-30T02:19:49.379Z,6.97
2022-11-30T02:20:49.458Z,6.97
2022-11-30T02:21:49.568Z,6.99
2022-11-30T02:22:49.632Z,6.99
2022-11-30T02:23:49.705Z,7.01
2022-11-30T02:24:49.824Z,7.00
2022-11-30T02:25:49.897Z,6.99
2022-11-30T02:26:49.978Z,7.00
2022-11-30T02:27:50.092Z,6.97
2022-11-30T02:28:50.122Z,6.97
2022-11-30T02:29:50.220Z,7.04
2022-11-30T02:30:50.371Z,7.00
2022-11-30T02:31:50.399Z,6.99
2022-11-30T02:32:50.493Z,7.00
2022-11-30T02:33:50.582Z,7.00
2022-11-30T02:34:50.660Z,7.01
2022-11-30T02:35:54.686Z,7.04
2022-11-30T02:36:50.796Z,7.01
2022-11-30T02:37:50.914Z,7.00
2022-11-30T02:38:50.952Z,7.01
2022-11-30T02:39:51.059Z,7.04
2022-11-30T02:40:51.138Z,7.01
2022-11-30T02:41:51.242Z,7.00
2022-11-30T02:42:51.331Z,7.00
2022-11-30T02:43:51.415Z,7.00
2022-11-30T02:44:51.489Z,6.99
2022-11-30T02:45:51.585Z,6.97
2022-11-30T02:46:51.661Z,6.97
2022-11-30T02:47:51.743Z,7.00
2022-11-30T02:48:51.809Z,6.99
2022-11-30T02:49:51.869Z,6.99
2022-11-30T02:50:51.973Z,6.99
2022-11-30T02:51:52.050Z,7.04
2022-11-30T02:52:52.174Z,7.07
2022-11-30T02:53:52.210Z,7.07
2022-11-30T02:54:52.301Z,7.07
2022-11-30T02:55:52.379Z,7.08
2022-11-30T02:56:52.472Z,7.08
2022-11-30T02:57:52.557Z,7.07
2022-11-30T02:58:52.624Z,7.08
2022-11-30T02:59:52.694Z,7.08
2022-11-30T03:00:52.791Z,7.08
2022-11-30T03:01:52.901Z,7.09
2022-11-30T03:02:53.027Z,7.11
2022-11-30T03:03:53.039Z,7.09
2022-11-30T03:04:53.147Z,7.09
2022-11-30T03:05:53.226Z,7.12
2022-11-30T03:06:53.314Z,7.12
2022-11-30T03:07:53.486Z,7.11
2022-11-30T03:08:53.459Z,7.11
2022-11-30T03:09:53.539Z,7.12
2022-11-30T03:10:53.609Z,7.11
2022-11-30T03:11:53.686Z,7.14
2022-11-30T03:12:53.800Z,7.11
2022-11-30T03:13:53.833Z,7.15
2022-11-30T03:14:53.939Z,7.15
2022-11-30T03:15:54.054Z,7.15
2022-11-30T03:16:54.109Z,7.18
2022-11-30T03:17:54.213Z,7.19
2022-11-30T03:18:54.276Z,7.21
2022-11-30T03:19:54.359Z,7.21
2022-11-30T03:20:54.465Z,7.19
2022-11-30T03:21:54.530Z,7.19
2022-11-30T03:22:54.652Z,7.21
2022-11-30T03:23:54.729Z,7.23
2022-11-30T03:24:54.843Z,7.21
2022-11-30T03:25:54.913Z,7.24
2022-11-30T03:26:55.023Z,7.23
2022-11-30T03:27:55.114Z,7.23
2022-11-30T03:28:55.173Z,7.24
2022-11-30T03:29:55.251Z,7.26
2022-11-30T03:30:55.432Z,7.24
2022-11-30T03:31:55.457Z,7.24
2022-11-30T03:32:55.594Z,7.24
2022-11-30T03:33:55.615Z,7.24
2022-11-30T03:34:55.711Z,7.23
2022-11-30T03:35:55.786Z,7.27
2022-11-30T03:36:55.892Z,7.26
2022-11-30T03:37:55.990Z,7.26
2022-11-30T03:38:56.058Z,7.27
2022-11-30T03:39:58.338Z,7.26
2022-11-30T03:40:56.232Z,7.26
2022-11-30T03:41:56.312Z,7.24
2022-11-30T03:42:56.433Z,7.24
2022-11-30T03:43:56.476Z,7.23
2022-11-30T03:44:56.550Z,7.23
2022-11-30T03:45:56.630Z,7.23
2022-11-30T03:46:56.694Z,7.27
2022-11-30T03:47:56.792Z,7.27
2022-11-30T03:48:56.863Z,7.29
2022-11-30T03:49:56.941Z,7.27
2022-11-30T03:50:57.036Z,7.27
2022-11-30T03:51:57.115Z,7.29
2022-11-30T03:52:57.238Z,7.29
2022-11-30T03:53:57.275Z,7.26
2022-11-30T03:54:57.379Z,7.27
2022-11-30T03:55:57.458Z,7.29
2022-11-30T03:56:57.549Z,7.27
2022-11-30T03:57:57.650Z,7.24
2022-11-30T03:58:57.722Z,7.26
2022-11-30T03:59:57.810Z,7.29
2022-11-30T04:00:57.883Z,7.26
2022-11-30T04:01:58.056Z,7.24
2022-11-30T04:02:58.100Z,7.26
2022-11-30T04:03:58.115Z,7.27
2022-11-30T04:04:58.225Z,7.29
2022-11-30T04:05:58.286Z,7.29
2022-11-30T04:06:58.389Z,7.29
2022-11-30T04:07:58.571Z,7.29
2022-11-30T04:08:58.566Z,7.29
2022-11-30T04:10:00.096Z,7.26
2022-11-30T04:10:58.732Z,7.26
2022-11-30T04:11:58.812Z,7.27
2022-11-30T04:12:58.961Z,7.27
2022-11-30T04:13:58.959Z,7.30
2022-11-30T04:14:59.049Z,7.32
2022-11-30T04:15:59.199Z,7.30
2022-11-30T04:16:59.230Z,7.29
2022-11-30T04:17:59.340Z,7.27
2022-11-30T04:18:59.399Z,7.30
2022-11-30T04:19:59.481Z,7.30
2022-11-30T04:20:59.571Z,7.29
2022-11-30T04:21:59.622Z,7.29
2022-11-30T04:22:59.744Z,7.27
2022-11-30T04:23:59.783Z,7.27
2022-11-30T04:24:59.883Z,7.27
2022-11-30T04:25:59.967Z,7.27
2022-11-30T04:27:00.068Z,7.24
2022-11-30T04:28:00.150Z,7.26
2022-11-30T04:29:04.185Z,7.24
2022-11-30T04:30:00.322Z,7.26
2022-11-30T04:31:00.500Z,7.24
2022-11-30T04:32:00.506Z,7.24
2022-11-30T04:33:00.593Z,7.21
2022-11-30T04:34:00.630Z,7.24
2022-11-30T04:35:00.739Z,7.24
2022-11-30T04:36:00.815Z,7.26
2022-11-30T04:37:00.928Z,7.24
2022-11-30T04:38:01.013Z,7.26
2022-11-30T04:39:01.100Z,7.29
2022-11-30T04:40:01.173Z,7.26
2022-11-30T04:41:01.282Z,7.27
2022-11-30T04:42:01.358Z,7.23
2022-11-30T04:43:01.463Z,7.24
2022-11-30T04:44:01.542Z,7.24
2022-11-30T04:45:01.612Z,7.24
2022-11-30T04:46:01.681Z,7.24
2022-11-30T04:47:01.794Z,7.23
2022-11-30T04:48:01.885Z,7.24
2022-11-30T04:49:01.969Z,7.23
2022-11-30T04:50:02.047Z,7.23
2022-11-30T04:51:02.156Z,7.21
2022-11-30T04:52:02.221Z,7.19
2022-11-30T04:53:02.343Z,7.16
2022-11-30T04:54:02.392Z,7.21
2022-11-30T04:55:02.479Z,7.18
2022-11-30T04:56:02.552Z,7.18
2022-11-30T04:57:02.644Z,7.16
2022-11-30T04:58:02.817Z,7.16
2022-11-30T04:59:02.822Z,7.16
2022-11-30T05:00:02.901Z,7.15
2022-11-30T05:01:02.970Z,7.18
2022-11-30T05:02:03.210Z,7.16
2022-11-30T05:03:03.176Z,7.16
2022-11-30T05:04:03.264Z,7.15
2022-11-30T05:05:03.284Z,7.16
2022-11-30T05:06:03.360Z,7.18
2022-11-30T05:07:03.463Z,7.15
2022-11-30T05:08:03.604Z,7.15
2022-11-30T05:09:03.617Z,7.16
2022-11-30T05:10:03.695Z,7.14
2022-11-30T05:11:03.811Z,7.12
2022-11-30T05:12:03.875Z,7.12
2022-11-30T05:13:04.005Z,7.14
2022-11-30T05:14:04.059Z,7.15
2022-11-30T05:15:04.139Z,7.16
2022-11-30T05:16:04.269Z,7.16
2022-11-30T05:17:04.314Z,7.15
2022-11-30T05:18:04.436Z,7.15
2022-11-30T05:19:04.462Z,7.14
2022-11-30T05:20:04.556Z,7.12
2022-11-30T05:21:04.638Z,7.12
2022-11-30T05:22:04.793Z,7.12
2022-11-30T05:23:04.817Z,7.15
2022-11-30T05:24:04.857Z,7.15
2022-11-30T05:25:04.976Z,7.18
2022-11-30T05:26:05.048Z,7.18
2022-11-30T05:27:10.677Z,7.19
2022-11-30T05:28:05.258Z,7.18
2022-11-30T05:29:05.325Z,7.15
2022-11-30T05:30:05.406Z,7.16
2022-11-30T05:31:05.616Z,7.16
2022-11-30T05:32:05.547Z,7.15
2022-11-30T05:33:05.662Z,7.16
2022-11-30T05:34:05.708Z,7.16
2022-11-30T05:35:05.828Z,7.16
2022-11-30T05:36:10.465Z,7.16
2022-11-30T05:37:05.977Z,7.16
2022-11-30T05:38:06.071Z,7.16
2022-11-30T05:39:06.143Z,7.16
2022-11-30T05:40:06.224Z,7.18
2022-11-30T05:41:06.318Z,7.19
2022-11-30T05:42:06.425Z,7.19
2022-11-30T05:43:06.531Z,7.18
2022-11-30T05:44:06.569Z,7.21
2022-11-30T05:45:06.671Z,7.24
2022-11-30T05:46:06.753Z,7.24
2022-11-30T05:47:06.889Z,7.26
2022-11-30T05:48:06.906Z,7.27
2022-11-30T05:49:06.973Z,7.24
2022-11-30T05:50:07.052Z,7.24
2022-11-30T05:51:07.169Z,7.27
2022-11-30T05:52:07.231Z,7.27
2022-11-30T05:53:07.355Z,7.27
2022-11-30T05:54:07.392Z,7.26
2022-11-30T05:55:07.498Z,7.23
2022-11-30T05:56:07.580Z,7.24
2022-11-30T05:57:07.664Z,7.26
2022-11-30T05:58:07.756Z,7.26
2022-11-30T05:59:07.830Z,7.26
2022-11-30T06:00:07.914Z,7.26
2022-11-30T06:01:07.984Z,7.27
2022-11-30T06:02:08.186Z,7.24
2022-11-30T06:03:08.275Z,7.27
2022-11-30T06:04:09.075Z,7.27
2022-11-30T06:05:08.328Z,7.27
2022-11-30T06:06:08.405Z,7.27
2022-11-30T06:07:08.508Z,7.29
2022-11-30T06:08:08.601Z,7.26
2022-11-30T06:09:08.674Z,7.26
2022-11-30T06:10:08.750Z,7.24
2022-11-30T06:11:08.840Z,7.24
2022-11-30T06:12:08.917Z,7.24
2022-11-30T06:13:09.043Z,7.26
2022-11-30T06:14:09.090Z,7.27
2022-11-30T06:15:09.182Z,7.29
2022-11-30T06:16:09.322Z,7.26
2022-11-30T06:17:09.352Z,7.27
2022-11-30T06:18:09.618Z,7.30
2022-11-30T06:19:09.496Z,7.30
2022-11-30T06:20:09.559Z,7.29
2022-11-30T06:21:09.665Z,7.26
2022-11-30T06:22:09.744Z,7.27
2022-11-30T06:23:09.890Z,7.26
2022-11-30T06:24:09.925Z,7.29
2022-11-30T06:25:10.026Z,7.29
2022-11-30T06:26:10.103Z,7.30
2022-11-30T06:27:10.210Z,7.29
2022-11-30T06:28:10.309Z,7.27
2022-11-30T06:29:10.384Z,7.29
2022-11-30T06:30:10.456Z,7.29
2022-11-30T06:31:10.570Z,7.32
2022-11-30T06:32:10.622Z,7.30
2022-11-30T06:33:10.735Z,7.30
2022-11-30T06:34:10.779Z,7.27
2022-11-30T06:35:10.887Z,7.29
2022-11-30T06:36:10.955Z,7.29
2022-11-30T06:37:11.059Z,7.30
2022-11-30T06:38:11.157Z,7.30
2022-11-30T06:39:11.230Z,7.30
2022-11-30T06:40:11.305Z,7.32
2022-11-30T06:41:11.371Z,7.32
2022-11-30T06:42:11.433Z,7.29
2022-11-30T06:43:11.547Z,7.29
2022-11-30T06:44:11.611Z,7.27
2022-11-30T06:45:11.708Z,7.27
2022-11-30T06:46:11.811Z,7.29
2022-11-30T06:47:11.873Z,7.30
2022-11-30T06:48:11.990Z,7.30
2022-11-30T06:49:12.043Z,7.30
2022-11-30T06:50:12.121Z,7.29
2022-11-30T06:51:12.240Z,7.30
2022-11-30T06:52:12.307Z,7.30
2022-11-30T06:53:12.435Z,7.32
2022-11-30T06:54:12.478Z,7.30
2022-11-30T06:55:12.571Z,7.33
2022-11-30T06:56:12.632Z,7.34
2022-11-30T06:57:12.703Z,7.32
2022-11-30T06:58:12.795Z,7.33
2022-11-30T06:59:12.880Z,7.33
2022-11-30T07:00:12.958Z,7.33
2022-11-30T07:01:13.096Z,7.33
2022-11-30T07:02:17.763Z,7.32
2022-11-30T07:03:13.409Z,7.32
2022-11-30T07:04:13.290Z,7.33
2022-11-30T07:05:13.328Z,7.33
2022-11-30T07:06:13.401Z,7.30
2022-11-30T07:07:13.477Z,7.30
2022-11-30T07:08:13.603Z,7.30
2022-11-30T07:09:13.655Z,7.29
2022-11-30T07:10:18.630Z,7.29
2022-11-30T07:11:13.795Z,7.29
2022-11-30T07:12:13.879Z,7.32
2022-11-30T07:13:13.970Z,7.30
2022-11-30T07:14:14.034Z,7.29
2022-11-30T07:15:14.097Z,7.30
2022-11-30T07:16:14.241Z,7.29
2022-11-30T07:17:14.262Z,7.27
2022-11-30T07:18:14.358Z,7.29
2022-11-30T07:19:14.394Z,7.29
2022-11-30T07:20:14.463Z,7.30
2022-11-30T07:21:14.539Z,7.33
2022-11-30T07:22:14.609Z,7.30
2022-11-30T07:23:14.708Z,7.30
2022-11-30T07:24:14.760Z,7.33
2022-11-30T07:25:14.828Z,7.33
2022-11-30T07:26:14.946Z,7.30
2022-11-30T07:27:14.984Z,7.34
2022-11-30T07:28:15.102Z,7.33
2022-11-30T07:29:15.141Z,7.32
2022-11-30T07:30:15.248Z,7.30
2022-11-30T07:31:16.682Z,7.30
2022-11-30T07:32:15.419Z,7.30
2022-11-30T07:33:15.620Z,7.30
2022-11-30T07:34:15.602Z,7.29
2022-11-30T07:35:15.685Z,7.27
2022-11-30T07:36:15.771Z,7.26
2022-11-30T07:37:15.849Z,7.27
2022-11-30T07:38:15.961Z,7.24
2022-11-30T07:39:16.029Z,7.26
2022-11-30T07:40:16.128Z,7.24
2022-11-30T07:41:16.178Z,7.19
2022-11-30T07:42:16.271Z,7.19
2022-11-30T07:43:16.364Z,7.19
2022-11-30T07:44:16.451Z,7.19
2022-11-30T07:45:16.528Z,7.19
2022-11-30T07:46:16.670Z,7.19
2022-11-30T07:47:16.708Z,7.21
2022-11-30T07:48:16.831Z,7.16
2022-11-30T07:49:16.867Z,7.19
2022-11-30T07:50:16.969Z,7.15
2022-11-30T07:51:17.045Z,7.18
2022-11-30T07:52:17.145Z,7.18
2022-11-30T07:53:17.235Z,7.15
2022-11-30T07:54:17.306Z,7.16
2022-11-30T07:55:17.381Z,7.16
2022-11-30T07:56:17.507Z,7.16
2022-11-30T07:57:17.567Z,7.16
2022-11-30T07:58:17.785Z,7.18
2022-11-30T07:59:17.707Z,7.18
2022-11-30T08:00:17.817Z,7.16
2022-11-30T08:01:18.027Z,7.16
2022-11-30T08:02:18.123Z,7.15
2022-11-30T08:03:18.068Z,7.15
2022-11-30T08:04:18.240Z,7.15
2022-11-30T08:05:18.202Z,7.14
2022-11-30T08:06:18.269Z,7.15
2022-11-30T08:07:18.392Z,7.12
2022-11-30T08:08:18.463Z,7.14
2022-11-30T08:09:20.884Z,7.12
2022-11-30T08:10:18.585Z,7.14
2022-11-30T08:11:18.656Z,7.14
2022-11-30T08:12:18.751Z,7.12
2022-11-30T08:13:18.858Z,7.15
2022-11-30T08:14:19.031Z,7.12
2022-11-30T08:15:20.618Z,7.12
2022-11-30T08:16:19.248Z,7.12
2022-11-30T08:17:19.206Z,7.14
2022-11-30T08:18:19.325Z,7.12
2022-11-30T08:19:19.367Z,7.15
2022-11-30T08:20:19.457Z,7.12
2022-11-30T08:21:19.533Z,7.12
2022-11-30T08:22:19.639Z,7.09
2022-11-30T08:23:19.732Z,7.09
2022-11-30T08:24:19.898Z,7.09
2022-11-30T08:25:19.868Z,7.09
2022-11-30T08:26:19.934Z,7.08
2022-11-30T08:27:19.995Z,7.08
2022-11-30T08:28:20.103Z,7.08
2022-11-30T08:29:20.146Z,7.12
2022-11-30T08:30:20.215Z,7.11
2022-11-30T08:31:20.330Z,7.11
2022-11-30T08:32:20.361Z,7.14
2022-11-30T08:33:20.448Z,7.12
2022-11-30T08:34:20.526Z,7.15
2022-11-30T08:35:20.626Z,7.15
2022-11-30T08:36:20.684Z,7.16
2022-11-30T08:37:20.766Z,7.18
2022-11-30T08:38:20.877Z,7.18
2022-11-30T08:39:20.929Z,7.21
2022-11-30T08:40:21.015Z,7.21
2022-11-30T08:41:21.091Z,7.19
2022-11-30T08:42:21.174Z,7.21
2022-11-30T08:43:21.268Z,7.24
2022-11-30T08:44:21.356Z,7.23
2022-11-30T08:45:21.433Z,7.26
2022-11-30T09:00:54.365Z,7.30
2022-11-30T09:00:59.255Z,7.42
2022-11-30T09:01:59.329Z,7.50
2022-11-30T09:02:59.474Z,7.52
2022-11-30T09:03:59.478Z,7.55
2022-11-30T09:04:59.587Z,7.50
2022-11-30T09:05:59.676Z,7.51
2022-11-30T09:06:59.746Z,7.52
2022-11-30T09:07:59.887Z,7.52
2022-11-30T09:08:59.900Z,7.52
2022-11-30T09:09:59.962Z,7.57
2022-11-30T09:11:00.090Z,7.58
2022-11-30T09:12:00.124Z,7.58
2022-11-30T09:13:00.194Z,7.60
2022-11-30T09:14:00.269Z,7.63
2022-11-30T09:15:00.654Z,7.62
2022-11-30T09:16:00.518Z,7.66
2022-11-30T09:17:00.485Z,7.63
2022-11-30T09:18:00.546Z,7.63
2022-11-30T09:19:00.619Z,7.60
2022-11-30T09:20:00.678Z,7.58
2022-11-30T09:21:00.768Z,7.58
2022-11-30T09:22:00.807Z,7.57
2022-11-30T09:23:00.915Z,7.57
2022-11-30T09:24:00.996Z,7.50
2022-11-30T09:25:01.059Z,7.48
2022-11-30T09:26:01.164Z,7.48
2022-11-30T09:27:01.223Z,7.52
2022-11-30T09:28:01.296Z,7.52
2022-11-30T09:29:01.405Z,7.48
2022-11-30T09:30:01.484Z,7.50
2022-11-30T09:31:01.671Z,7.44
2022-11-30T09:32:01.665Z,7.41
2022-11-30T09:33:01.772Z,7.42
2022-11-30T09:34:01.800Z,7.42
2022-11-30T09:35:01.901Z,7.45
2022-11-30T09:36:01.990Z,7.44
2022-11-30T09:37:02.063Z,7.41
2022-11-30T09:38:02.138Z,7.41
2022-11-30T09:39:02.218Z,7.41
2022-11-30T09:40:02.287Z,7.44
2022-11-30T09:41:02.377Z,7.39
2022-11-30T09:42:02.417Z,7.39
2022-11-30T09:43:02.488Z,7.36
2022-11-30T09:44:02.561Z,7.33
2022-11-30T09:45:02.674Z,7.34
2022-11-30T09:46:02.843Z,7.34
2022-11-30T09:47:02.825Z,7.33
2022-11-30T09:48:02.908Z,7.34
2022-11-30T09:49:02.986Z,7.34
2022-11-30T09:50:03.059Z,7.36
2022-11-30T09:51:03.171Z,7.33
2022-11-30T09:52:03.228Z,7.32
2022-11-30T09:53:03.331Z,7.30
2022-11-30T09:54:03.416Z,7.30
2022-11-30T09:55:03.484Z,7.26
2022-11-30T09:56:03.563Z,7.24
2022-11-30T09:57:03.624Z,7.26
2022-11-30T09:58:03.694Z,7.24
2022-11-30T09:59:03.766Z,7.27
2022-11-30T10:00:03.822Z,7.26
2022-11-30T10:01:07.358Z,7.24
2022-11-30T10:02:03.978Z,7.26
2022-11-30T10:03:04.243Z,7.24
2022-11-30T10:04:04.111Z,7.23
2022-11-30T10:05:04.196Z,7.24
2022-11-30T10:06:04.282Z,7.23
2022-11-30T10:07:04.352Z,7.23
2022-11-30T10:08:04.469Z,7.24
2022-11-30T10:09:04.540Z,7.24
2022-11-30T10:11:05.400Z,7.26
2022-11-30T10:12:04.735Z,7.23
2022-11-30T10:13:04.840Z,7.23
2022-11-30T10:14:04.914Z,7.19
2022-11-30T10:15:05.021Z,7.23
2022-11-30T10:16:05.131Z,7.23
2022-11-30T10:17:05.175Z,7.24
2022-11-30T10:18:05.257Z,7.29
2022-11-30T10:19:05.322Z,7.29
2022-11-30T10:20:05.397Z,7.32
2022-11-30T10:21:05.482Z,7.26
2022-11-30T10:22:05.529Z,7.27
2022-11-30T10:23:05.638Z,7.26
2022-11-30T10:24:05.717Z,7.26
2022-11-30T10:25:11.505Z,7.26
2022-11-30T10:26:05.891Z,7.26
2022-11-30T10:27:05.954Z,7.24
2022-11-30T10:28:24.408Z,7.23
2022-11-30T10:29:06.105Z,7.23
2022-11-30T10:30:06.186Z,7.24
2022-11-30T10:31:06.327Z,7.24
2022-11-30T10:32:06.308Z,7.24
2022-11-30T10:33:06.377Z,7.23
2022-11-30T10:34:06.458Z,7.24
2022-11-30T10:35:06.527Z,7.27
2022-11-30T10:36:06.618Z,7.26
2022-11-30T10:37:06.689Z,7.26
2022-11-30T10:38:06.755Z,7.26
2022-11-30T10:39:09.678Z,7.26
2022-11-30T10:40:06.903Z,7.24
2022-11-30T10:41:06.969Z,7.21
2022-11-30T10:42:07.033Z,7.19
2022-11-30T10:43:07.106Z,7.19
2022-11-30T10:44:07.224Z,7.23
2022-11-30T10:45:07.285Z,7.21
2022-11-30T10:46:11.283Z,7.21
2022-11-30T10:47:07.483Z,7.21
2022-11-30T10:48:07.565Z,7.24
2022-11-30T10:49:07.644Z,7.23
2022-11-30T10:50:07.714Z,7.21
2022-11-30T10:51:07.803Z,7.23
2022-11-30T10:52:07.876Z,7.19
2022-11-30T10:53:07.937Z,7.18
2022-11-30T10:54:08.010Z,7.18
2022-11-30T10:55:08.086Z,7.16
2022-11-30T10:56:08.174Z,7.16
2022-11-30T10:57:08.217Z,7.15
2022-11-30T10:58:08.286Z,7.14
2022-11-30T10:59:08.360Z,7.16
2022-11-30T11:00:08.459Z,7.18
2022-11-30T11:01:08.634Z,7.16
2022-11-30T11:02:08.674Z,7.19
2022-11-30T11:03:08.787Z,7.19
2022-11-30T11:04:08.821Z,7.18
2022-11-30T11:05:08.829Z,7.16
2022-11-30T11:06:08.924Z,7.15
2022-11-30T11:07:09.007Z,7.16
2022-11-30T11:08:09.092Z,7.16
2022-11-30T11:09:09.113Z,7.18
2022-11-30T11:10:09.192Z,7.19
2022-11-30T11:11:09.279Z,7.18
2022-11-30T11:12:09.343Z,7.21
2022-11-30T11:13:09.415Z,7.23
2022-11-30T11:14:09.486Z,7.24
2022-11-30T11:15:09.570Z,7.26
2022-11-30T11:16:09.728Z,7.24
2022-11-30T11:17:09.721Z,7.24
2022-11-30T11:18:09.788Z,7.23
2022-11-30T11:19:09.848Z,7.24
2022-11-30T11:20:09.955Z,7.23
2022-11-30T11:21:10.063Z,7.19
2022-11-30T11:22:10.125Z,7.21
2022-11-30T11:23:10.196Z,7.21
2022-11-30T11:24:10.308Z,7.21
2022-11-30T11:25:10.387Z,7.23
2022-11-30T11:26:10.505Z,7.21
2022-11-30T11:27:10.534Z,7.23
2022-11-30T11:28:10.621Z,7.21
2022-11-30T11:29:10.701Z,7.23
2022-11-30T11:30:10.795Z,7.21
2022-11-30T11:31:10.932Z,7.18
2022-11-30T11:32:10.954Z,7.18
2022-11-30T11:33:11.038Z,7.18
2022-11-30T11:34:11.127Z,7.19
2022-11-30T11:35:11.212Z,7.19
2022-11-30T11:36:11.306Z,7.23
2022-11-30T11:37:11.377Z,7.18
2022-11-30T11:38:11.455Z,7.16
2022-11-30T11:39:11.542Z,7.16
2022-11-30T11:40:11.621Z,7.18
2022-11-30T11:41:11.719Z,7.19
2022-11-30T11:42:11.788Z,7.19
2022-11-30T11:43:11.872Z,7.23
2022-11-30T11:44:11.948Z,7.19
2022-11-30T11:45:12.035Z,7.18
2022-11-30T11:46:12.125Z,7.18
2022-11-30T11:47:12.180Z,7.19
2022-11-30T11:48:12.838Z,7.23
2022-11-30T11:49:12.327Z,7.23
2022-11-30T11:50:12.500Z,7.23
2022-11-30T11:51:12.506Z,7.21
2022-11-30T11:52:12.547Z,7.23
2022-11-30T11:53:12.662Z,7.19
2022-11-30T11:54:12.771Z,7.21
2022-11-30T11:55:12.803Z,7.21
2022-11-30T11:56:12.893Z,7.16
2022-11-30T11:57:13.098Z,7.16
2022-11-30T11:58:13.031Z,7.14
2022-11-30T11:59:13.137Z,7.12
2022-11-30T12:00:16.435Z,7.15
2022-11-30T12:01:38.605Z,7.14
2022-11-30T12:02:13.482Z,7.18
2022-11-30T12:03:13.466Z,7.18
2022-11-30T12:04:13.600Z,7.16
2022-11-30T12:05:13.621Z,7.16
2022-11-30T12:06:13.720Z,7.18
2022-11-30T12:07:16.715Z,7.16
2022-11-30T12:08:13.865Z,7.19
2022-11-30T12:09:13.953Z,7.19
2022-11-30T12:10:43.544Z,7.19
2022-11-30T12:11:14.139Z,7.18
2022-11-30T12:12:14.173Z,7.19
2022-11-30T12:13:14.276Z,7.18
2022-11-30T12:14:14.330Z,7.18
2022-11-30T12:15:14.442Z,7.16
2022-11-30T12:16:14.659Z,7.16
2022-11-30T12:17:14.609Z,7.15
2022-11-30T12:18:22.313Z,7.18
2022-11-30T12:19:14.789Z,7.16
2022-11-30T12:20:14.865Z,7.15
2022-11-30T12:21:14.980Z,7.15
2022-11-30T12:22:15.042Z,7.18
2022-11-30T12:23:15.158Z,7.16
2022-11-30T12:24:15.230Z,7.16
2022-11-30T12:25:15.336Z,7.16
2022-11-30T12:26:15.438Z,7.16
2022-11-30T12:27:15.496Z,7.16
2022-11-30T12:28:15.566Z,7.16
2022-11-30T12:29:15.653Z,7.15
2022-11-30T12:30:15.727Z,7.15
2022-11-30T12:31:15.878Z,7.15
2022-11-30T12:32:15.866Z,7.14
2022-11-30T12:33:15.942Z,7.18
2022-11-30T12:34:16.021Z,7.18
2022-11-30T12:35:16.103Z,7.21
2022-11-30T12:36:16.179Z,7.19
2022-11-30T12:37:16.246Z,7.19
2022-11-30T12:38:16.321Z,7.94
2022-11-30T12:39:16.424Z,8.97
2022-11-30T12:40:16.510Z,9.52
2022-11-30T12:41:20.662Z,9.55
2022-11-30T12:42:16.648Z,9.26
2022-11-30T12:43:16.721Z,8.96
2022-11-30T12:44:16.796Z,8.63
2022-11-30T12:45:16.890Z,8.36
2022-11-30T12:46:16.993Z,8.10
2022-11-30T12:47:17.077Z,7.92
2022-11-30T12:48:17.112Z,7.76
2022-11-30T12:49:17.330Z,7.69
2022-11-30T12:50:17.290Z,7.58
2022-11-30T12:51:17.400Z,7.50
2022-11-30T12:52:17.486Z,7.44
2022-11-30T12:53:17.554Z,7.39
2022-11-30T12:54:17.630Z,7.34
2022-11-30T12:55:17.704Z,7.32
2022-11-30T12:56:17.784Z,7.30
2022-11-30T12:57:17.889Z,7.27
2022-11-30T12:58:17.963Z,7.26
2022-11-30T12:59:18.070Z,7.23
2022-11-30T13:00:18.143Z,7.19
2022-11-30T13:01:18.285Z,7.11
2022-11-30T13:02:18.356Z,7.12
2022-11-30T13:03:18.397Z,7.12
2022-11-30T13:04:18.440Z,7.14
2022-11-30T13:05:18.545Z,7.11
2022-11-30T13:06:18.623Z,7.08
2022-11-30T13:07:18.754Z,7.08
2022-11-30T13:08:18.794Z,7.08
2022-11-30T13:09:18.877Z,7.09
2022-11-30T13:10:18.951Z,7.08
2022-11-30T13:11:19.061Z,7.09
2022-11-30T13:12:19.145Z,7.09
2022-11-30T13:13:19.229Z,7.04
2022-11-30T13:14:19.314Z,7.01
2022-11-30T13:15:19.377Z,7.04
2022-11-30T13:16:19.476Z,7.04
2022-11-30T13:17:19.576Z,7.01
2022-11-30T13:18:19.617Z,6.99
2022-11-30T13:19:19.720Z,6.97
2022-11-30T13:20:19.795Z,6.97
2022-11-30T13:21:19.888Z,6.99
2022-11-30T13:22:19.981Z,6.97
2022-11-30T13:23:20.053Z,6.96
2022-11-30T13:24:20.128Z,6.97
2022-11-30T13:25:26.258Z,7.00
2022-11-30T13:26:20.328Z,7.00
2022-11-30T13:27:20.416Z,7.00
2022-11-30T13:28:20.455Z,6.99
2022-11-30T13:29:20.621Z,6.99
2022-11-30T13:30:20.635Z,7.00
2022-11-30T13:31:20.802Z,7.01
2022-11-30T13:32:56.735Z,6.97
2022-11-30T13:33:20.901Z,6.97
2022-11-30T13:34:20.968Z,6.99